^^
Station Historical Data
Daily Summary for Nil La, TWC- Units:  Both    English   Metric
« Previous Day
Next Day »
Daily Weekly Monthly Yearly Custom
  High: Low: Average:
Temperature: TemperatureC °F /  -17.8 °C -16.3 °F /  -26.8 °C -11.6 °F /  -24.2 °C
Dew Point: DewpointC °F /  -17.8 °C -17.8 °F /  -27.7 °C -13.4 °F /  -25.2 °C
Humidity: Humidity% 77% 86%
Wind Speed: WindSpeedKMHmph /  0km/h - 0.4mph /  0.6km/h
Wind Gust: WindSpeedGustKMHmph /  0km/h - -
Wind- - South
Pressure: PressurehPa in /  0 hPa 1026.6 in /  34760.7 hPa -
Precipitation: 0.0 in /  0 mm    
Historical Graphs
 
 
Tabular Data for Nil La, TWC-
Time Temperature Dew Point Pressure Wind Wind Speed Wind Gust Humidity Rainfall Rate (Hourly) solar Conditions
TemperatureC °F /  -17.8 °C DewpointC °F /  -17.8 °C PressurehPain /  0hPa Calm     Humidity% HourlyPrecipMMin /  0mm SoftwareType W/m2 Conditions
00:02 -13.8 °F /  -25.4 °C -15.2 °F /  -26.2 °C 1026.6in /  34760.7hPa Calm     89% 0.0in /  0mm WeatherDisplay:10.37 W/m2 FEW
00:07 -13.8 °F /  -25.4 °C -15.1 °F /  -26.2 °C 1027.0in /  34774.2hPa NNW 0.8mph /  1.3km/h 3.2mph /  5.1km/h 90% 0.0in /  0mm WeatherDisplay:10.37 W/m2 FEW
00:12 -13.9 °F /  -25.5 °C -15.2 °F /  -26.2 °C 1027.0in /  34774.2hPa Calm     90% 0.0in /  0mm WeatherDisplay:10.37 W/m2 FEW
00:17 -13.9 °F /  -25.5 °C -15.2 °F /  -26.2 °C 1026.6in /  34760.7hPa Calm     90% 0.0in /  0mm WeatherDisplay:10.37 W/m2 FEW
00:22 -13.8 °F /  -25.4 °C -15.1 °F /  -26.2 °C 1027.0in /  34774.2hPa NNW 0.3mph /  0.5km/h   90% 0.0in /  0mm WeatherDisplay:10.37 W/m2 FEW
00:27 -13.7 °F /  -25.4 °C -14.9 °F /  -26.1 °C 1027.0in /  34774.2hPa Calm     91% 0.0in /  0mm WeatherDisplay:10.37 W/m2 FEW
00:32 -13.7 °F /  -25.4 °C -14.9 °F /  -26.1 °C 1027.0in /  34774.2hPa NNW 2.7mph /  4.3km/h 3.7mph /  6km/h 91% 0.0in /  0mm WeatherDisplay:10.37 W/m2 FEW
00:37 -13.7 °F /  -25.4 °C -14.9 °F /  -26.1 °C 1027.0in /  34774.2hPa NNW 3.2mph /  5.1km/h 4.8mph /  7.7km/h 90% 0.0in /  0mm WeatherDisplay:10.37 W/m2 FEW
00:42 -13.6 °F /  -25.3 °C -14.7 °F /  -25.9 °C 1027.0in /  34774.2hPa NNW 2.3mph /  3.7km/h 5.6mph /  9km/h 91% 0.0in /  0mm WeatherDisplay:10.37 W/m2 FEW
00:47 -13.5 °F /  -25.3 °C -14.7 °F /  -25.9 °C 1027.0in /  34774.2hPa NNW 1.4mph /  2.3km/h 3.7mph /  6km/h 91% 0.0in /  0mm WeatherDisplay:10.37 W/m2 FEW
00:52 -13.5 °F /  -25.3 °C -14.7 °F /  -25.9 °C 1027.0in /  34774.2hPa NNW 3.5mph /  5.6km/h 3.7mph /  6km/h 91% 0.0in /  0mm WeatherDisplay:10.37 W/m2 FEW
00:57 -13.5 °F /  -25.3 °C -14.7 °F /  -25.9 °C 1027.0in /  34774.2hPa NNW 3.5mph /  5.6km/h 5.6mph /  9km/h 91% 0.0in /  0mm WeatherDisplay:10.37 W/m2 FEW
01:02 -13.6 °F /  -25.3 °C -14.8 °F /  -26 °C 1027.0in /  34774.2hPa NNW 4.7mph /  7.6km/h 5.6mph /  9km/h 90% 0.0in /  0mm WeatherDisplay:10.37 W/m2 FEW
01:07 -13.6 °F /  -25.3 °C -14.8 °F /  -26 °C 1027.0in /  34774.2hPa NNW 3.5mph /  5.6km/h 5.6mph /  9km/h 90% 0.0in /  0mm WeatherDisplay:10.37 W/m2 FEW
01:12 -13.5 °F /  -25.3 °C -14.8 °F /  -26 °C 1027.0in /  34774.2hPa NNW 2.3mph /  3.7km/h 5.6mph /  9km/h 90% 0.0in /  0mm WeatherDisplay:10.37 W/m2 FEW
01:17 -13.6 °F /  -25.3 °C -14.8 °F /  -26 °C 1027.0in /  34774.2hPa NNW 2.7mph /  4.3km/h 5.6mph /  9km/h 90% 0.0in /  0mm WeatherDisplay:10.37 W/m2 FEW
01:22 -13.6 °F /  -25.3 °C -14.8 °F /  -26 °C 1027.0in /  34774.2hPa NNW 1.0mph /  1.6km/h 3.7mph /  6km/h 90% 0.0in /  0mm WeatherDisplay:10.37 W/m2 FEW
01:27 -13.7 °F /  -25.4 °C -14.9 °F /  -26.1 °C 1027.0in /  34774.2hPa NNW 1.4mph /  2.3km/h 4.8mph /  7.7km/h 90% 0.0in /  0mm WeatherDisplay:10.37 W/m2 FEW
01:32 -13.7 °F /  -25.4 °C -14.9 °F /  -26.1 °C 1027.0in /  34774.2hPa NNW 2.3mph /  3.7km/h 4.8mph /  7.7km/h 90% 0.0in /  0mm WeatherDisplay:10.37 W/m2 FEW
01:37 -13.7 °F /  -25.4 °C -15.0 °F /  -26.1 °C 1027.0in /  34774.2hPa NNW 0.8mph /  1.3km/h 3.7mph /  6km/h 90% 0.0in /  0mm WeatherDisplay:10.37 W/m2 FEW
01:42 -13.8 °F /  -25.4 °C -15.1 °F /  -26.2 °C 1027.0in /  34774.2hPa Calm     90% 0.0in /  0mm WeatherDisplay:10.37 W/m2 FEW
01:47 -13.9 °F /  -25.5 °C -15.2 °F /  -26.2 °C 1027.0in /  34774.2hPa Calm     90% 0.0in /  0mm WeatherDisplay:10.37 W/m2 FEW
01:52 -14.0 °F /  -25.6 °C -15.3 °F /  -26.3 °C 1027.0in /  34774.2hPa Calm     90% 0.0in /  0mm WeatherDisplay:10.37 W/m2 FEW
01:57 -14.1 °F /  -25.6 °C -15.6 °F /  -26.4 °C 1027.0in /  34774.2hPa Calm     89% 0.0in /  0mm WeatherDisplay:10.37 W/m2 FEW
02:02 -14.2 °F /  -25.7 °C -15.6 °F /  -26.4 °C 1027.0in /  34774.2hPa Calm     89% 0.0in /  0mm WeatherDisplay:10.37 W/m2 FEW
02:07 -14.3 °F /  -25.7 °C -15.7 °F /  -26.5 °C 1027.0in /  34774.2hPa Calm     89% 0.0in /  0mm WeatherDisplay:10.37 W/m2 FEW
02:12 -14.4 °F /  -25.8 °C -15.8 °F /  -26.6 °C 1027.0in /  34774.2hPa Calm     89% 0.0in /  0mm WeatherDisplay:10.37 W/m2 FEW
02:17 -14.5 °F /  -25.8 °C -15.9 °F /  -26.6 °C 1027.0in /  34774.2hPa Calm     89% 0.0in /  0mm WeatherDisplay:10.37 W/m2 FEW
02:22 -14.7 °F /  -25.9 °C -16.1 °F /  -26.7 °C 1027.0in /  34774.2hPa Calm     89% 0.0in /  0mm WeatherDisplay:10.37 W/m2 FEW
02:27 -14.8 °F /  -26 °C -16.2 °F /  -26.8 °C 1027.0in /  34774.2hPa Calm     89% 0.0in /  0mm WeatherDisplay:10.37 W/m2 FEW
02:32 -14.9 °F /  -26.1 °C -16.4 °F /  -26.9 °C 1027.0in /  34774.2hPa Calm     88% 0.0in /  0mm WeatherDisplay:10.37 W/m2 FEW
02:37 -15.0 °F /  -26.1 °C -15.1 °F /  -26.2 °C 1027.0in /  34774.2hPa Calm     99% 0.0in /  0mm WeatherDisplay:10.37 W/m2 FEW
02:42 -15.1 °F /  -26.2 °C -16.7 °F /  -27.1 °C 1027.0in /  34774.2hPa Calm     88% 0.0in /  0mm WeatherDisplay:10.37 W/m2 FEW
02:47 -15.2 °F /  -26.2 °C -16.7 °F /  -27.1 °C 1027.0in /  34774.2hPa Calm     88% 0.0in /  0mm WeatherDisplay:10.37 W/m2 FEW
02:52 -15.2 °F /  -26.2 °C -16.8 °F /  -27.1 °C 1027.0in /  34774.2hPa Calm     88% 0.0in /  0mm WeatherDisplay:10.37 W/m2 FEW
02:57 -15.1 °F /  -26.2 °C -16.5 °F /  -26.9 °C 1027.0in /  34774.2hPa Calm     89% 0.0in /  0mm WeatherDisplay:10.37 W/m2 FEW
03:02 -15.1 °F /  -26.2 °C -16.4 °F /  -26.9 °C 1027.0in /  34774.2hPa Calm     89% 0.0in /  0mm WeatherDisplay:10.37 W/m2 FEW
03:07 -15.0 °F /  -26.1 °C -16.4 °F /  -26.9 °C 1027.0in /  34774.2hPa NNW 0.2mph /  0.3km/h 1.9mph /  3.1km/h 89% 0.0in /  0mm WeatherDisplay:10.37 W/m2 FEW
03:12 -15.0 °F /  -26.1 °C -16.4 °F /  -26.9 °C 1027.0in /  34774.2hPa Calm     89% 0.0in /  0mm WeatherDisplay:10.37 W/m2 FEW
03:17 -15.2 °F /  -26.2 °C -16.6 °F /  -27 °C 1027.0in /  34774.2hPa Calm     89% 0.0in /  0mm WeatherDisplay:10.37 W/m2 FEW
03:22 -15.3 °F /  -26.3 °C -16.9 °F /  -27.2 °C 1027.0in /  34774.2hPa Calm     88% 0.0in /  0mm WeatherDisplay:10.37 W/m2 FEW
03:27 -15.4 °F /  -26.3 °C -17.0 °F /  -27.2 °C 1027.0in /  34774.2hPa Calm     88% 0.0in /  0mm WeatherDisplay:10.37 W/m2 FEW
03:32 -15.4 °F /  -26.3 °C -16.8 °F /  -27.1 °C 1027.0in /  34774.2hPa Calm     89% 0.0in /  0mm WeatherDisplay:10.37 W/m2 FEW
03:37 -15.3 °F /  -26.3 °C -16.7 °F /  -27.1 °C 1027.0in /  34774.2hPa Calm     89% 0.0in /  0mm WeatherDisplay:10.37 W/m2 FEW
03:42 -15.2 °F /  -26.2 °C -16.4 °F /  -26.9 °C 1027.0in /  34774.2hPa Calm     90% 0.0in /  0mm WeatherDisplay:10.37 W/m2 FEW
03:47 -15.0 °F /  -26.1 °C -16.3 °F /  -26.8 °C 1027.0in /  34774.2hPa Calm     90% 0.0in /  0mm WeatherDisplay:10.37 W/m2 FEW
03:52 -14.9 °F /  -26.1 °C -16.2 °F /  -26.8 °C 1027.0in /  34774.2hPa Calm     90% 0.0in /  0mm WeatherDisplay:10.37 W/m2 FEW
03:57 -14.9 °F /  -26.1 °C -16.2 °F /  -26.8 °C 1026.6in /  34760.7hPa Calm     90% 0.0in /  0mm WeatherDisplay:10.37 W/m2 FEW
04:02 -14.9 °F /  -26.1 °C -16.2 °F /  -26.8 °C 1027.0in /  34774.2hPa Calm     90% 0.0in /  0mm WeatherDisplay:10.37 W/m2 FEW
04:07 -14.9 °F /  -26.1 °C -16.3 °F /  -26.8 °C 1026.6in /  34760.7hPa Calm     89% 0.0in /  0mm WeatherDisplay:10.37 W/m2 FEW
04:12 -14.9 °F /  -26.1 °C -16.3 °F /  -26.8 °C 1027.0in /  34774.2hPa Calm     89% 0.0in /  0mm WeatherDisplay:10.37 W/m2 FEW
04:17 -15.0 °F /  -26.1 °C -16.4 °F /  -26.9 °C 1027.0in /  34774.2hPa Calm     89% 0.0in /  0mm WeatherDisplay:10.37 W/m2 FEW
04:22 -15.1 °F /  -26.2 °C -16.4 °F /  -26.9 °C 1027.0in /  34774.2hPa Calm     89% 0.0in /  0mm WeatherDisplay:10.37 W/m2 FEW
04:27 -15.2 °F /  -26.2 °C -16.6 °F /  -27 °C 1027.0in /  34774.2hPa Calm     89% 0.0in /  0mm WeatherDisplay:10.37 W/m2 FEW
04:32 -15.3 °F /  -26.3 °C -16.7 °F /  -27.1 °C 1027.0in /  34774.2hPa Calm     89% 0.0in /  0mm WeatherDisplay:10.37 W/m2 FEW
04:37 -15.4 °F /  -26.3 °C -16.9 °F /  -27.2 °C 1027.0in /  34774.2hPa Calm     88% 0.0in /  0mm WeatherDisplay:10.37 W/m2 FEW
04:42 -15.5 °F /  -26.4 °C -17.1 °F /  -27.3 °C 1027.0in /  34774.2hPa Calm     88% 0.0in /  0mm WeatherDisplay:10.37 W/m2 FEW
04:47 -15.7 °F /  -26.5 °C -17.2 °F /  -27.3 °C 1027.0in /  34774.2hPa Calm     88% 0.0in /  0mm WeatherDisplay:10.37 W/m2 FEW
04:52 -15.8 °F /  -26.6 °C -17.3 °F /  -27.4 °C 1027.0in /  34774.2hPa Calm     88% 0.0in /  0mm WeatherDisplay:10.37 W/m2 FEW
04:57 -15.8 °F /  -26.6 °C -17.4 °F /  -27.4 °C 1027.0in /  34774.2hPa Calm     88% 0.0in /  0mm WeatherDisplay:10.37 W/m2 FEW
05:02 -15.9 °F /  -26.6 °C -17.4 °F /  -27.4 °C 1027.0in /  34774.2hPa Calm     88% 0.0in /  0mm WeatherDisplay:10.37 W/m2 FEW
05:07 -15.9 °F /  -26.6 °C -17.5 °F /  -27.5 °C 1027.0in /  34774.2hPa Calm     88% 0.0in /  0mm WeatherDisplay:10.37 W/m2 FEW
05:12 -16.0 °F /  -26.7 °C -17.6 °F /  -27.6 °C 1027.0in /  34774.2hPa Calm     88% 0.0in /  0mm WeatherDisplay:10.37 W/m2 FEW
05:17 -16.0 °F /  -26.7 °C -17.6 °F /  -27.6 °C 1027.0in /  34774.2hPa Calm     88% 0.0in /  0mm WeatherDisplay:10.37 W/m2 FEW
05:22 -16.0 °F /  -26.7 °C -17.6 °F /  -27.6 °C 1027.0in /  34774.2hPa Calm     88% 0.0in /  0mm WeatherDisplay:10.37 W/m2 FEW
05:27 -16.1 °F /  -26.7 °C -17.6 °F /  -27.6 °C 1027.0in /  34774.2hPa Calm     88% 0.0in /  0mm WeatherDisplay:10.37 W/m2 FEW
05:32 -16.1 °F /  -26.7 °C -17.6 °F /  -27.6 °C 1027.0in /  34774.2hPa Calm     88% 0.0in /  0mm WeatherDisplay:10.37 W/m2 FEW
05:37 -16.1 °F /  -26.7 °C -17.6 °F /  -27.6 °C 1027.0in /  34774.2hPa Calm     88% 0.0in /  0mm WeatherDisplay:10.37 W/m2 FEW
05:42 -16.2 °F /  -26.8 °C -17.7 °F /  -27.6 °C 1027.0in /  34774.2hPa Calm     88% 0.0in /  0mm WeatherDisplay:10.37 W/m2 FEW
05:47 -16.2 °F /  -26.8 °C -17.7 °F /  -27.6 °C 1027.0in /  34774.2hPa Calm     88% 0.0in /  0mm WeatherDisplay:10.37 W/m2 FEW
05:52 -16.2 °F /  -26.8 °C -17.7 °F /  -27.6 °C 1027.0in /  34774.2hPa Calm     88% 0.0in /  0mm WeatherDisplay:10.37 W/m2 FEW
05:57 -16.3 °F /  -26.8 °C -17.8 °F /  -27.7 °C 1027.0in /  34774.2hPa Calm     88% 0.0in /  0mm WeatherDisplay:10.37 W/m2 FEW
06:02 -16.3 °F /  -26.8 °C -17.8 °F /  -27.7 °C 1027.0in /  34774.2hPa Calm     88% 0.0in /  0mm WeatherDisplay:10.37 W/m2 FEW
06:07 -16.2 °F /  -26.8 °C -17.7 °F /  -27.6 °C 1027.0in /  34774.2hPa Calm     88% 0.0in /  0mm WeatherDisplay:10.37 W/m2 FEW
06:12 -16.2 °F /  -26.8 °C -17.6 °F /  -27.6 °C 1027.0in /  34774.2hPa Calm     89% 0.0in /  0mm WeatherDisplay:10.37 W/m2 FEW
06:17 -16.1 °F /  -26.7 °C -17.5 °F /  -27.5 °C 1027.3in /  34784.4hPa Calm     89% 0.0in /  0mm WeatherDisplay:10.37 W/m2 FEW
06:22 -16.1 °F /  -26.7 °C -17.4 °F /  -27.4 °C 1027.0in /  34774.2hPa Calm     89% 0.0in /  0mm WeatherDisplay:10.37 W/m2 FEW
06:27 -16.1 °F /  -26.7 °C -17.4 °F /  -27.4 °C 1027.0in /  34774.2hPa Calm     89% 0.0in /  0mm WeatherDisplay:10.37 W/m2 FEW
06:32 -15.9 °F /  -26.6 °C -17.3 °F /  -27.4 °C 1027.0in /  34774.2hPa Calm     89% 0.0in /  0mm WeatherDisplay:10.37 W/m2 FEW
06:37 -15.9 °F /  -26.6 °C -17.3 °F /  -27.4 °C 1027.0in /  34774.2hPa Calm     89% 0.0in /  0mm WeatherDisplay:10.37 W/m2 FEW
06:42 -15.8 °F /  -26.6 °C -17.2 °F /  -27.3 °C 1027.3in /  34784.4hPa Calm     89% 0.0in /  0mm WeatherDisplay:10.37 W/m2 FEW
06:47 -15.8 °F /  -26.6 °C -17.2 °F /  -27.3 °C 1027.3in /  34784.4hPa Calm     89% 0.0in /  0mm WeatherDisplay:10.37 W/m2 FEW
06:52 -15.9 °F /  -26.6 °C -17.3 °F /  -27.4 °C 1027.3in /  34784.4hPa Calm     89% 0.0in /  0mm WeatherDisplay:10.37 W/m2 FEW
06:57 -15.9 °F /  -26.6 °C -17.3 °F /  -27.4 °C 1027.0in /  34774.2hPa Calm     89% 0.0in /  0mm WeatherDisplay:10.37 W/m2 FEW
07:02 -15.9 °F /  -26.6 °C -17.3 °F /  -27.4 °C 1027.3in /  34784.4hPa Calm     89% 0.0in /  0mm WeatherDisplay:10.37 W/m2 FEW
07:07 -15.9 °F /  -26.6 °C -17.3 °F /  -27.4 °C 1027.3in /  34784.4hPa Calm     89% 0.0in /  0mm WeatherDisplay:10.37 W/m2 FEW
07:12 -16.0 °F /  -26.7 °C -17.4 °F /  -27.4 °C 1027.0in /  34774.2hPa Calm     89% 0.0in /  0mm WeatherDisplay:10.37 W/m2 FEW
07:17 -16.0 °F /  -26.7 °C -17.6 °F /  -27.6 °C 1027.0in /  34774.2hPa Calm     88% 0.0in /  0mm WeatherDisplay:10.37 W/m2 FEW
07:22 -16.0 °F /  -26.7 °C -17.6 °F /  -27.6 °C 1027.0in /  34774.2hPa Calm     88% 0.0in /  0mm WeatherDisplay:10.37 W/m2 FEW
07:27 -16.0 °F /  -26.7 °C -17.6 °F /  -27.6 °C 1027.0in /  34774.2hPa Calm     88% 0.0in /  0mm WeatherDisplay:10.37 W/m2 FEW
07:32 -16.1 °F /  -26.7 °C -17.4 °F /  -27.4 °C 1027.0in /  34774.2hPa Calm     89% 0.0in /  0mm WeatherDisplay:10.37 W/m2 FEW
07:37 -16.1 °F /  -26.7 °C -17.6 °F /  -27.6 °C 1027.0in /  34774.2hPa Calm     88% 0.0in /  0mm WeatherDisplay:10.37 W/m2 FEW
07:42 -16.2 °F /  -26.8 °C -17.7 °F /  -27.6 °C 1027.0in /  34774.2hPa Calm     88% 0.0in /  0mm WeatherDisplay:10.37 W/m2 FEW
07:47 -16.2 °F /  -26.8 °C -17.7 °F /  -27.6 °C 1027.0in /  34774.2hPa Calm     88% 0.0in /  0mm WeatherDisplay:10.37 W/m2 FEW
07:52 -16.3 °F /  -26.8 °C -17.8 °F /  -27.7 °C 1027.0in /  34774.2hPa Calm     88% 0.0in /  0mm WeatherDisplay:10.37 W/m2 FEW
07:57 -16.3 °F /  -26.8 °C -17.8 °F /  -27.7 °C 1027.0in /  34774.2hPa Calm     88% 0.0in /  0mm WeatherDisplay:10.37 W/m2 FEW
08:02 -16.2 °F /  -26.8 °C -17.6 °F /  -27.6 °C 1027.0in /  34774.2hPa Calm     89% 0.0in /  0mm WeatherDisplay:10.37 W/m2 FEW
08:07 -16.2 °F /  -26.8 °C -17.6 °F /  -27.6 °C 1027.0in /  34774.2hPa Calm     89% 0.0in /  0mm WeatherDisplay:10.37 W/m2 FEW
08:12 -16.2 °F /  -26.8 °C -17.6 °F /  -27.6 °C 1027.0in /  34774.2hPa Calm     89% 0.0in /  0mm WeatherDisplay:10.37 W/m2 FEW
08:17 -16.2 °F /  -26.8 °C -17.6 °F /  -27.6 °C 1027.0in /  34774.2hPa Calm     89% 0.0in /  0mm WeatherDisplay:10.37 W/m2 FEW
08:22 -16.2 °F /  -26.8 °C -17.6 °F /  -27.6 °C 1027.0in /  34774.2hPa Calm     89% 0.0in /  0mm WeatherDisplay:10.37 W/m2 FEW
08:27 -16.2 °F /  -26.8 °C -17.7 °F /  -27.6 °C 1027.0in /  34774.2hPa Calm     88% 0.0in /  0mm WeatherDisplay:10.37 W/m2 FEW
08:32 -16.1 °F /  -26.7 °C -17.5 °F /  -27.5 °C 1027.0in /  34774.2hPa Calm     89% 0.0in /  0mm WeatherDisplay:10.37 W/m2 FEW
08:37 -16.1 °F /  -26.7 °C -17.6 °F /  -27.6 °C 1027.0in /  34774.2hPa Calm     88% 0.0in /  0mm WeatherDisplay:10.37 W/m2 FEW
08:42 -16.0 °F /  -26.7 °C -17.4 °F /  -27.4 °C 1027.0in /  34774.2hPa Calm     89% 0.0in /  0mm WeatherDisplay:10.37 W/m2 FEW
08:47 -15.8 °F /  -26.6 °C -17.2 °F /  -27.3 °C 1027.0in /  34774.2hPa Calm     89% 0.0in /  0mm WeatherDisplay:10.37 W/m2 FEW
08:52 -15.6 °F /  -26.4 °C -16.8 °F /  -27.1 °C 1027.0in /  34774.2hPa Calm     90% 0.0in /  0mm WeatherDisplay:10.37 W/m2 FEW
08:57 -15.4 °F /  -26.3 °C -16.7 °F /  -27.1 °C 1027.3in /  34784.4hPa Calm     90% 0.0in /  0mm WeatherDisplay:10.37 W/m2 FEW
09:02 -15.3 °F /  -26.3 °C -16.6 °F /  -27 °C 1027.3in /  34784.4hPa Calm     90% 0.0in /  0mm WeatherDisplay:10.37 W/m2 FEW
09:07 -15.2 °F /  -26.2 °C -16.5 °F /  -26.9 °C 1027.3in /  34784.4hPa Calm     90% 0.0in /  0mm WeatherDisplay:10.37 W/m2 FEW
09:12 -15.0 °F /  -26.1 °C -16.3 °F /  -26.8 °C 1027.3in /  34784.4hPa Calm     90% 0.0in /  0mm WeatherDisplay:10.37 W/m2 FEW
09:17 -14.9 °F /  -26.1 °C -16.2 °F /  -26.8 °C 1027.3in /  34784.4hPa Calm     90% 0.0in /  0mm WeatherDisplay:10.37 W/m2 FEW
09:22 -14.8 °F /  -26 °C -16.1 °F /  -26.7 °C 1027.0in /  34774.2hPa Calm     90% 0.0in /  0mm WeatherDisplay:10.37 W/m2 FEW
09:27 -14.7 °F /  -25.9 °C -15.9 °F /  -26.6 °C 1027.3in /  34784.4hPa Calm     90% 0.0in /  0mm WeatherDisplay:10.37 W/m2 FEW
09:32 -14.4 °F /  -25.8 °C -15.7 °F /  -26.5 °C 1027.3in /  34784.4hPa Calm     90% 0.0in /  0mm WeatherDisplay:10.37 W/m2 FEW
09:37 -14.1 °F /  -25.6 °C -15.2 °F /  -26.2 °C 1027.3in /  34784.4hPa Calm     91% 0.0in /  0mm WeatherDisplay:10.37 W/m2 FEW
09:42 -13.8 °F /  -25.4 °C -15.0 °F /  -26.1 °C 1027.3in /  34784.4hPa NNW 0.2mph /  0.3km/h   91% 0.0in /  0mm WeatherDisplay:10.37 W/m2 FEW
09:47 -13.4 °F /  -25.2 °C -14.6 °F /  -25.9 °C 1027.3in /  34784.4hPa Calm     91% 0.0in /  0mm WeatherDisplay:10.37 W/m2 FEW
09:52 -13.2 °F /  -25.1 °C -14.3 °F /  -25.7 °C 1027.3in /  34784.4hPa Calm     91% 0.0in /  0mm WeatherDisplay:10.37 W/m2 FEW
09:57 -12.9 °F /  -24.9 °C -14.1 °F /  -25.6 °C 1027.3in /  34784.4hPa NNW 2.4mph /  3.9km/h 5.6mph /  9km/h 91% 0.0in /  0mm WeatherDisplay:10.37 W/m2 FEW
10:02 -12.7 °F /  -24.8 °C -13.8 °F /  -25.4 °C 1027.3in /  34784.4hPa Calm     91% 0.0in /  0mm WeatherDisplay:10.37 W/m2 FEW
10:07 -12.3 °F /  -24.6 °C -13.5 °F /  -25.3 °C 1027.7in /  34797.9hPa NNW 0.6mph /  1km/h 5.6mph /  9km/h 91% 0.0in /  0mm WeatherDisplay:10.37 W/m2 FEW
10:12 -12.2 °F /  -24.6 °C -13.3 °F /  -25.2 °C 1027.3in /  34784.4hPa NNW 0.6mph /  1km/h 5.6mph /  9km/h 91% 0.0in /  0mm WeatherDisplay:10.37 W/m2 FEW
10:17 -11.9 °F /  -24.4 °C -13.1 °F /  -25.1 °C 1027.7in /  34797.9hPa NNW 1.3mph /  2.1km/h 4.8mph /  7.7km/h 91% 0.0in /  0mm WeatherDisplay:10.37 W/m2 FEW
10:23 -11.7 °F /  -24.3 °C -12.9 °F /  -24.9 °C 1027.7in /  34797.9hPa Calm     91% 0.0in /  0mm WeatherDisplay:10.37 W/m2 FEW
10:28 -11.6 °F /  -24.2 °C -12.7 °F /  -24.8 °C 1027.7in /  34797.9hPa Calm     91% 0.0in /  0mm WeatherDisplay:10.37 W/m2 FEW
10:33 -11.4 °F /  -24.1 °C -12.6 °F /  -24.8 °C 1027.7in /  34797.9hPa Calm     91% 0.0in /  0mm WeatherDisplay:10.37 W/m2 FEW
10:38 -11.2 °F /  -24 °C -12.4 °F /  -24.7 °C 1027.7in /  34797.9hPa NNW 1.3mph /  2.1km/h 5.6mph /  9km/h 91% 0.0in /  0mm WeatherDisplay:10.37 W/m2 FEW
10:43 -11.0 °F /  -23.9 °C -12.2 °F /  -24.6 °C 1027.7in /  34797.9hPa ENE 2.4mph /  3.9km/h 6.4mph /  10.3km/h 91% 0.0in /  0mm WeatherDisplay:10.37 W/m2 FEW
10:48 -10.9 °F /  -23.8 °C -12.1 °F /  -24.5 °C 1027.3in /  34784.4hPa Calm     91% 0.0in /  0mm WeatherDisplay:10.37 W/m2 FEW
10:53 -10.7 °F /  -23.7 °C -12.1 °F /  -24.5 °C 1027.7in /  34797.9hPa NE 0.6mph /  1km/h 5.6mph /  9km/h 90% 0.0in /  0mm WeatherDisplay:10.37 W/m2 FEW
10:58 -10.6 °F /  -23.7 °C -11.7 °F /  -24.3 °C 1027.7in /  34797.9hPa NE 0.3mph /  0.5km/h 3.7mph /  6km/h 91% 0.0in /  0mm WeatherDisplay:10.37 W/m2 FEW
11:03 -10.3 °F /  -23.5 °C -11.4 °F /  -24.1 °C 1027.7in /  34797.9hPa NNE 2.9mph /  4.7km/h 4.8mph /  7.7km/h 91% 0.0in /  0mm WeatherDisplay:10.37 W/m2 FEW
11:08 -10.1 °F /  -23.4 °C -11.2 °F /  -24 °C 1027.7in /  34797.9hPa Calm     91% 0.0in /  0mm WeatherDisplay:10.37 W/m2 FEW
11:13 -9.8 °F /  -23.2 °C -11.2 °F /  -24 °C 1027.3in /  34784.4hPa Calm   3.7mph /  6km/h 90% 0.0in /  0mm WeatherDisplay:10.37 W/m2 FEW
11:18 -9.6 °F /  -23.1 °C -10.9 °F /  -23.8 °C 1027.3in /  34784.4hPa NE 2.3mph /  3.7km/h 5.6mph /  9km/h 90% 0.0in /  0mm WeatherDisplay:10.37 W/m2 FEW
11:23 -9.3 °F /  -22.9 °C -10.7 °F /  -23.7 °C 1027.3in /  34784.4hPa Calm     90% 0.0in /  0mm WeatherDisplay:10.37 W/m2 FEW
11:29 -8.8 °F /  -22.7 °C -10.1 °F /  -23.4 °C 1027.3in /  34784.4hPa ENE 3.4mph /  5.5km/h 5.6mph /  9km/h 90% 0.0in /  0mm WeatherDisplay:10.37 W/m2 FEW
11:34 -8.4 °F /  -22.4 °C -9.9 °F /  -23.3 °C 1027.3in /  34784.4hPa Calm   5.6mph /  9km/h 89% 0.0in /  0mm WeatherDisplay:10.37 W/m2 FEW
11:39 -8.1 °F /  -22.3 °C -9.7 °F /  -23.2 °C 1027.3in /  34784.4hPa North 0.6mph /  1km/h 6.4mph /  10.3km/h 88% 0.0in /  0mm WeatherDisplay:10.37 W/m2 FEW
11:44 -7.9 °F /  -22.2 °C -9.6 °F /  -23.1 °C 1027.3in /  34784.4hPa NNE 3.4mph /  5.5km/h 5.6mph /  9km/h 88% 0.0in /  0mm WeatherDisplay:10.37 W/m2 FEW
11:49 -7.8 °F /  -22.1 °C -9.4 °F /  -23 °C 1027.3in /  34784.4hPa ENE 3.4mph /  5.5km/h 7.4mph /  11.9km/h 88% 0.0in /  0mm WeatherDisplay:10.37 W/m2 FEW
11:54 -7.6 °F /  -22 °C -9.3 °F /  -22.9 °C 1027.3in /  34784.4hPa NNW 4.0mph /  6.4km/h 7.4mph /  11.9km/h 87% 0.0in /  0mm WeatherDisplay:10.37 W/m2 FEW
11:59 -7.4 °F /  -21.9 °C -9.4 °F /  -23 °C 1027.3in /  34784.4hPa NNW 5.1mph /  8.2km/h 5.6mph /  9km/h 86% 0.0in /  0mm WeatherDisplay:10.37 W/m2 FEW
12:04 -7.3 °F /  -21.8 °C -9.3 °F /  -22.9 °C 1027.3in /  34784.4hPa North 2.1mph /  3.4km/h 5.6mph /  9km/h 86% 0.0in /  0mm WeatherDisplay:10.37 W/m2 FEW
12:09 -7.2 °F /  -21.8 °C -9.1 °F /  -22.8 °C 1027.3in /  34784.4hPa Calm     86% 0.0in /  0mm WeatherDisplay:10.37 W/m2 FEW
12:14 -6.9 °F /  -21.6 °C -9.1 °F /  -22.8 °C 1027.3in /  34784.4hPa Calm     85% 0.0in /  0mm WeatherDisplay:10.37 W/m2 FEW
12:19 -6.7 °F /  -21.5 °C -8.8 °F /  -22.7 °C 1027.3in /  34784.4hPa Calm     85% 0.0in /  0mm WeatherDisplay:10.37 W/m2 FEW
12:24 -6.6 °F /  -21.4 °C -8.9 °F /  -22.7 °C 1027.3in /  34784.4hPa North 0.2mph /  0.3km/h 5.6mph /  9km/h 84% 0.0in /  0mm WeatherDisplay:10.37 W/m2 FEW
12:29 -6.5 °F /  -21.4 °C -8.8 °F /  -22.7 °C 1027.3in /  34784.4hPa Calm     84% 0.0in /  0mm WeatherDisplay:10.37 W/m2 FEW
12:34 -6.3 °F /  -21.3 °C -8.6 °F /  -22.6 °C 1027.3in /  34784.4hPa Calm     84% 0.0in /  0mm WeatherDisplay:10.37 W/m2 FEW
12:39 -6.2 °F /  -21.2 °C -8.6 °F /  -22.6 °C 1027.3in /  34784.4hPa Calm   5.6mph /  9km/h 83% 0.0in /  0mm WeatherDisplay:10.37 W/m2 FEW
12:44 -6.1 °F /  -21.2 °C -8.6 °F /  -22.6 °C 1027.3in /  34784.4hPa NE 1.4mph /  2.3km/h 5.6mph /  9km/h 83% 0.0in /  0mm WeatherDisplay:10.37 W/m2 FEW
12:49 -6.1 °F /  -21.2 °C -8.5 °F /  -22.5 °C 1027.3in /  34784.4hPa NNE 1.0mph /  1.6km/h 1.6mph /  2.6km/h 83% 0.0in /  0mm WeatherDisplay:10.37 W/m2 FEW
12:54 -6.1 °F /  -21.2 °C -8.7 °F /  -22.6 °C 1027.3in /  34784.4hPa North 2.3mph /  3.7km/h 5.6mph /  9km/h 82% 0.0in /  0mm WeatherDisplay:10.37 W/m2 FEW
12:59 -6.0 °F /  -21.1 °C -8.6 °F /  -22.6 °C 1027.3in /  34784.4hPa Calm     82% 0.0in /  0mm WeatherDisplay:10.37 W/m2 FEW
13:04 -5.9 °F /  -21.1 °C -8.4 °F /  -22.4 °C 1027.3in /  34784.4hPa Calm     82% 0.0in /  0mm WeatherDisplay:10.37 W/m2 FEW
13:09 -5.8 °F /  -21 °C -8.5 °F /  -22.5 °C 1027.3in /  34784.4hPa NNE 1.1mph /  1.8km/h 5.6mph /  9km/h 81% 0.0in /  0mm WeatherDisplay:10.37 W/m2 FEW
13:14 -5.7 °F /  -20.9 °C -8.4 °F /  -22.4 °C 1027.3in /  34784.4hPa NNE 2.3mph /  3.7km/h 5.6mph /  9km/h 81% 0.0in /  0mm WeatherDisplay:10.37 W/m2 FEW
13:19 -5.6 °F /  -20.9 °C -8.3 °F /  -22.4 °C 1027.3in /  34784.4hPa Calm     81% 0.0in /  0mm WeatherDisplay:10.37 W/m2 FEW
13:24 -5.5 °F /  -20.8 °C -8.4 °F /  -22.4 °C 1027.3in /  34784.4hPa Calm     80% 0.0in /  0mm WeatherDisplay:10.37 W/m2 FEW
13:29 -5.5 °F /  -20.8 °C -8.4 °F /  -22.4 °C 1027.3in /  34784.4hPa Calm   1.6mph /  2.6km/h 80% 0.0in /  0mm WeatherDisplay:10.37 W/m2 FEW
13:34 -5.6 °F /  -20.9 °C -8.5 °F /  -22.5 °C 1027.3in /  34784.4hPa ENE 3.4mph /  5.5km/h 5.6mph /  9km/h 80% 0.0in /  0mm WeatherDisplay:10.37 W/m2 FEW
13:39 -5.7 °F /  -20.9 °C -8.8 °F /  -22.7 °C 1027.3in /  34784.4hPa ENE 1.0mph /  1.6km/h 3.7mph /  6km/h 79% 0.0in /  0mm WeatherDisplay:10.37 W/m2 FEW
13:44 -5.8 °F /  -21 °C -8.7 °F /  -22.6 °C 1027.3in /  34784.4hPa Calm   3.7mph /  6km/h 80% 0.0in /  0mm WeatherDisplay:10.37 W/m2 FEW
13:49 -5.8 °F /  -21 °C -8.7 °F /  -22.6 °C 1027.3in /  34784.4hPa Calm     80% 0.0in /  0mm WeatherDisplay:10.37 W/m2 FEW
13:54 -5.8 °F /  -21 °C -8.7 °F /  -22.6 °C 1027.3in /  34784.4hPa NE 0.8mph /  1.3km/h 5.6mph /  9km/h 80% 0.0in /  0mm WeatherDisplay:10.37 W/m2 FEW
13:59 -5.8 °F /  -21 °C -8.9 °F /  -22.7 °C 1027.3in /  34784.4hPa ENE 3.1mph /  5km/h 7.4mph /  11.9km/h 79% 0.0in /  0mm WeatherDisplay:10.37 W/m2 FEW
14:04 -5.8 °F /  -21 °C -8.9 °F /  -22.7 °C 1027.3in /  34784.4hPa NE 1.4mph /  2.3km/h 3.2mph /  5.1km/h 79% 0.0in /  0mm WeatherDisplay:10.37 W/m2 FEW
14:09 -5.7 °F /  -20.9 °C -8.8 °F /  -22.7 °C 1027.3in /  34784.4hPa Calm     79% 0.0in /  0mm WeatherDisplay:10.37 W/m2 FEW
14:14 -5.7 °F /  -20.9 °C -8.7 °F /  -22.6 °C 1027.3in /  34784.4hPa Calm     79% 0.0in /  0mm WeatherDisplay:10.37 W/m2 FEW
14:19 -5.6 °F /  -20.9 °C -8.8 °F /  -22.7 °C 1027.3in /  34784.4hPa Calm     78% 0.0in /  0mm WeatherDisplay:10.37 W/m2 FEW
14:24 -5.7 °F /  -20.9 °C -8.9 °F /  -22.7 °C 1027.3in /  34784.4hPa Calm     78% 0.0in /  0mm WeatherDisplay:10.37 W/m2 FEW
14:29 -5.7 °F /  -20.9 °C -9.1 °F /  -22.8 °C 1027.3in /  34784.4hPa NE 1.6mph /  2.6km/h 4.8mph /  7.7km/h 77% 0.0in /  0mm WeatherDisplay:10.37 W/m2 FEW
14:34 -5.7 °F /  -20.9 °C -8.9 °F /  -22.7 °C 1027.3in /  34784.4hPa NE 0.6mph /  1km/h 3.2mph /  5.1km/h 78% 0.0in /  0mm WeatherDisplay:10.37 W/m2 FEW
14:39 -5.7 °F /  -20.9 °C -8.9 °F /  -22.7 °C 1027.3in /  34784.4hPa Calm     78% 0.0in /  0mm WeatherDisplay:10.37 W/m2 FEW
14:45 -5.7 °F /  -20.9 °C -8.9 °F /  -22.7 °C 1027.0in /  34774.2hPa Calm   3.2mph /  5.1km/h 78% 0.0in /  0mm WeatherDisplay:10.37 W/m2 FEW
14:50 -5.7 °F /  -20.9 °C -8.9 °F /  -22.7 °C 1027.0in /  34774.2hPa NE 2.4mph /  3.9km/h 5.6mph /  9km/h 78% 0.0in /  0mm WeatherDisplay:10.37 W/m2 FEW
14:55 -5.8 °F /  -21 °C -9.0 °F /  -22.8 °C 1027.3in /  34784.4hPa NE 0.3mph /  0.5km/h 1.9mph /  3.1km/h 78% 0.0in /  0mm WeatherDisplay:10.37 W/m2 FEW
15:00 -5.8 °F /  -21 °C -9.1 °F /  -22.8 °C 1027.3in /  34784.4hPa NE 2.7mph /  4.3km/h 3.7mph /  6km/h 78% 0.0in /  0mm WeatherDisplay:10.37 W/m2 FEW
15:05 -5.8 °F /  -21 °C -9.1 °F /  -22.8 °C 1027.3in /  34784.4hPa Calm     78% 0.0in /  0mm WeatherDisplay:10.37 W/m2 FEW
15:10 -5.8 °F /  -21 °C -9.2 °F /  -22.9 °C 1027.3in /  34784.4hPa NE 0.3mph /  0.5km/h 5.6mph /  9km/h 77% 0.0in /  0mm WeatherDisplay:10.37 W/m2 FEW
15:15 -5.9 °F /  -21.1 °C -9.3 °F /  -22.9 °C 1027.3in /  34784.4hPa Calm     77% 0.0in /  0mm WeatherDisplay:10.37 W/m2 FEW
15:20 -5.9 °F /  -21.1 °C -9.3 °F /  -22.9 °C 1027.0in /  34774.2hPa NE 0.6mph /  1km/h 4.8mph /  7.7km/h 77% 0.0in /  0mm WeatherDisplay:10.37 W/m2 FEW
15:25 -5.9 °F /  -21.1 °C -9.2 °F /  -22.9 °C 1027.0in /  34774.2hPa Calm     78% 0.0in /  0mm WeatherDisplay:10.37 W/m2 FEW
15:30 -6.0 °F /  -21.1 °C -9.2 °F /  -22.9 °C 1027.0in /  34774.2hPa NE 0.3mph /  0.5km/h 4.8mph /  7.7km/h 78% 0.0in /  0mm WeatherDisplay:10.37 W/m2 FEW
15:35 -6.0 °F /  -21.1 °C -9.2 °F /  -22.9 °C 1027.0in /  34774.2hPa Calm     78% 0.0in /  0mm WeatherDisplay:10.37 W/m2 FEW
15:40 -6.1 °F /  -21.2 °C -9.3 °F /  -22.9 °C 1027.0in /  34774.2hPa Calm     78% 0.0in /  0mm WeatherDisplay:10.37 W/m2 FEW
15:45 -6.1 °F /  -21.2 °C -9.3 °F /  -22.9 °C 1027.0in /  34774.2hPa Calm     78% 0.0in /  0mm WeatherDisplay:10.37 W/m2 FEW
15:50 -6.2 °F /  -21.2 °C -9.4 °F /  -23 °C 1027.0in /  34774.2hPa Calm     78% 0.0in /  0mm WeatherDisplay:10.37 W/m2 FEW
15:55 -6.2 °F /  -21.2 °C -9.4 °F /  -23 °C 1027.0in /  34774.2hPa Calm     78% 0.0in /  0mm WeatherDisplay:10.37 W/m2 FEW
16:00 -6.3 °F /  -21.3 °C -9.3 °F /  -22.9 °C 1027.0in /  34774.2hPa Calm     79% 0.0in /  0mm WeatherDisplay:10.37 W/m2 FEW
16:05 -6.3 °F /  -21.3 °C -9.4 °F /  -23 °C 1027.0in /  34774.2hPa Calm     79% 0.0in /  0mm WeatherDisplay:10.37 W/m2 FEW
16:10 -6.3 °F /  -21.3 °C -9.4 °F /  -23 °C 1027.0in /  34774.2hPa Calm     79% 0.0in /  0mm WeatherDisplay:10.37 W/m2 FEW
16:15 -6.4 °F /  -21.3 °C -9.4 °F /  -23 °C 1027.0in /  34774.2hPa NE 0.2mph /  0.3km/h 3.2mph /  5.1km/h 79% 0.0in /  0mm WeatherDisplay:10.37 W/m2 FEW
16:20 -6.5 °F /  -21.4 °C -9.6 °F /  -23.1 °C 1027.0in /  34774.2hPa Calm     79% 0.0in /  0mm WeatherDisplay:10.37 W/m2 FEW
16:25 -6.6 °F /  -21.4 °C -9.6 °F /  -23.1 °C 1027.0in /  34774.2hPa Calm     79% 0.0in /  0mm WeatherDisplay:10.37 W/m2 FEW
16:30 -6.7 °F /  -21.5 °C -9.6 °F /  -23.1 °C 1027.0in /  34774.2hPa Calm     80% 0.0in /  0mm WeatherDisplay:10.37 W/m2 FEW
16:35 -6.8 °F /  -21.6 °C -9.7 °F /  -23.2 °C 1027.0in /  34774.2hPa Calm     80% 0.0in /  0mm WeatherDisplay:10.37 W/m2 FEW
16:40 -6.9 °F /  -21.6 °C -9.8 °F /  -23.2 °C 1027.0in /  34774.2hPa Calm     80% 0.0in /  0mm WeatherDisplay:10.37 W/m2 FEW
16:45 -7.1 °F /  -21.7 °C -9.8 °F /  -23.2 °C 1027.0in /  34774.2hPa Calm     81% 0.0in /  0mm WeatherDisplay:10.37 W/m2 FEW
16:50 -7.3 °F /  -21.8 °C -9.8 °F /  -23.2 °C 1027.0in /  34774.2hPa Calm     82% 0.0in /  0mm WeatherDisplay:10.37 W/m2 FEW
16:55 -7.4 °F /  -21.9 °C -10.0 °F /  -23.3 °C 1027.0in /  34774.2hPa Calm     82% 0.0in /  0mm WeatherDisplay:10.37 W/m2 FEW
17:00 -7.6 °F /  -22 °C -9.9 °F /  -23.3 °C 1027.0in /  34774.2hPa Calm     83% 0.0in /  0mm WeatherDisplay:10.37 W/m2 FEW
17:05 -7.7 °F /  -22.1 °C -10.1 °F /  -23.4 °C 1027.0in /  34774.2hPa Calm     83% 0.0in /  0mm WeatherDisplay:10.37 W/m2 FEW
17:10 -7.9 °F /  -22.2 °C -10.1 °F /  -23.4 °C 1027.0in /  34774.2hPa Calm     84% 0.0in /  0mm WeatherDisplay:10.37 W/m2 FEW
17:15 -8.0 °F /  -22.2 °C -10.2 °F /  -23.4 °C 1027.0in /  34774.2hPa Calm     84% 0.0in /  0mm WeatherDisplay:10.37 W/m2 FEW
17:20 -8.2 °F /  -22.3 °C -10.2 °F /  -23.4 °C 1027.0in /  34774.2hPa Calm     85% 0.0in /  0mm WeatherDisplay:10.37 W/m2 FEW
17:25 -8.3 °F /  -22.4 °C -10.4 °F /  -23.6 °C 1027.0in /  34774.2hPa Calm     85% 0.0in /  0mm WeatherDisplay:10.37 W/m2 FEW
17:30 -8.5 °F /  -22.5 °C -10.6 °F /  -23.7 °C 1027.0in /  34774.2hPa Calm     85% 0.0in /  0mm WeatherDisplay:10.37 W/m2 FEW
17:35 -8.7 °F /  -22.6 °C -10.7 °F /  -23.7 °C 1027.0in /  34774.2hPa Calm     85% 0.0in /  0mm WeatherDisplay:10.37 W/m2 FEW
17:40 -8.8 °F /  -22.7 °C -10.8 °F /  -23.8 °C 1027.0in /  34774.2hPa Calm     85% 0.0in /  0mm WeatherDisplay:10.37 W/m2 FEW
17:45 -9.0 °F /  -22.8 °C -11.1 °F /  -23.9 °C 1027.0in /  34774.2hPa Calm     85% 0.0in /  0mm WeatherDisplay:10.37 W/m2 FEW
17:50 -9.2 °F /  -22.9 °C -11.1 °F /  -23.9 °C 1027.0in /  34774.2hPa Calm     86% 0.0in /  0mm WeatherDisplay:10.37 W/m2 FEW
17:55 -9.3 °F /  -22.9 °C -11.2 °F /  -24 °C 1027.0in /  34774.2hPa Calm     86% 0.0in /  0mm WeatherDisplay:10.37 W/m2 FEW
18:00 -9.5 °F /  -23.1 °C -11.4 °F /  -24.1 °C 1027.0in /  34774.2hPa Calm     86% 0.0in /  0mm WeatherDisplay:10.37 W/m2 FEW
18:05 -9.7 °F /  -23.2 °C -11.6 °F /  -24.2 °C 1027.0in /  34774.2hPa Calm     86% 0.0in /  0mm WeatherDisplay:10.37 W/m2 FEW
18:10 -9.8 °F /  -23.2 °C -11.6 °F /  -24.2 °C 1027.0in /  34774.2hPa Calm     87% 0.0in /  0mm WeatherDisplay:10.37 W/m2 FEW
18:15 -9.9 °F /  -23.3 °C -11.7 °F /  -24.3 °C 1027.0in /  34774.2hPa Calm     87% 0.0in /  0mm WeatherDisplay:10.37 W/m2 FEW
18:20 -10.1 °F /  -23.4 °C -11.8 °F /  -24.3 °C 1027.0in /  34774.2hPa Calm     87% 0.0in /  0mm WeatherDisplay:10.37 W/m2 FEW
18:25 -10.2 °F /  -23.4 °C -11.9 °F /  -24.4 °C 1027.0in /  34774.2hPa Calm     87% 0.0in /  0mm WeatherDisplay:10.37 W/m2 FEW
18:30 -10.3 °F /  -23.5 °C -12.1 °F /  -24.5 °C 1027.0in /  34774.2hPa Calm     87% 0.0in /  0mm WeatherDisplay:10.37 W/m2 FEW
18:35 -10.4 °F /  -23.6 °C -12.2 °F /  -24.6 °C 1027.0in /  34774.2hPa Calm     87% 0.0in /  0mm WeatherDisplay:10.37 W/m2 FEW
18:40 -10.6 °F /  -23.7 °C -12.3 °F /  -24.6 °C 1027.0in /  34774.2hPa Calm     87% 0.0in /  0mm WeatherDisplay:10.37 W/m2 FEW
18:45 -10.7 °F /  -23.7 °C -12.3 °F /  -24.6 °C 1027.0in /  34774.2hPa Calm     88% 0.0in /  0mm WeatherDisplay:10.37 W/m2 FEW
18:50 -10.8 °F /  -23.8 °C -12.4 °F /  -24.7 °C 1027.0in /  34774.2hPa Calm     88% 0.0in /  0mm WeatherDisplay:10.37 W/m2 FEW
18:55 -11.0 °F /  -23.9 °C -12.6 °F /  -24.8 °C 1027.0in /  34774.2hPa Calm     88% 0.0in /  0mm WeatherDisplay:10.37 W/m2 FEW
19:00 -11.2 °F /  -24 °C -12.8 °F /  -24.9 °C 1027.0in /  34774.2hPa Calm     88% 0.0in /  0mm WeatherDisplay:10.37 W/m2 FEW
19:05 -11.3 °F /  -24.1 °C -12.9 °F /  -24.9 °C 1027.0in /  34774.2hPa Calm     88% 0.0in /  0mm WeatherDisplay:10.37 W/m2 FEW
19:10 -11.4 °F /  -24.1 °C -13.1 °F /  -25.1 °C 1027.0in /  34774.2hPa Calm     88% 0.0in /  0mm WeatherDisplay:10.37 W/m2 FEW
19:15 -11.6 °F /  -24.2 °C -13.2 °F /  -25.1 °C 1027.0in /  34774.2hPa Calm     88% 0.0in /  0mm WeatherDisplay:10.37 W/m2 FEW
19:20 -11.7 °F /  -24.3 °C -13.3 °F /  -25.2 °C 1027.0in /  34774.2hPa Calm     88% 0.0in /  0mm WeatherDisplay:10.37 W/m2 FEW
19:25 -11.8 °F /  -24.3 °C -13.4 °F /  -25.2 °C 1027.0in /  34774.2hPa Calm     88% 0.0in /  0mm WeatherDisplay:10.37 W/m2 FEW
19:30 -11.9 °F /  -24.4 °C -13.6 °F /  -25.3 °C 1027.0in /  34774.2hPa Calm     88% 0.0in /  0mm WeatherDisplay:10.37 W/m2 FEW
19:35 -12.1 °F /  -24.5 °C -13.7 °F /  -25.4 °C 1027.0in /  34774.2hPa Calm     88% 0.0in /  0mm WeatherDisplay:10.37 W/m2 FEW
19:40 -12.2 °F /  -24.6 °C -13.7 °F /  -25.4 °C 1027.0in /  34774.2hPa Calm     89% 0.0in /  0mm WeatherDisplay:10.37 W/m2 FEW
19:45 -12.3 °F /  -24.6 °C -13.7 °F /  -25.4 °C 1027.0in /  34774.2hPa Calm     89% 0.0in /  0mm WeatherDisplay:10.37 W/m2 FEW
19:50 -12.3 °F /  -24.6 °C -13.8 °F /  -25.4 °C 1027.3in /  34784.4hPa Calm     89% 0.0in /  0mm WeatherDisplay:10.37 W/m2 FEW
19:55 -12.4 °F /  -24.7 °C -13.8 °F /  -25.4 °C 1027.0in /  34774.2hPa Calm     89% 0.0in /  0mm WeatherDisplay:10.37 W/m2 FEW
Tuulensuunkaari, Veikkola, Suomi
Compliments of Weather Underground - 2.5 mb